»·PEaware :: N377AM KIFP-KVGT

N377AM :: KIFP-KVGT

FLIGHT INFORMATION

Flight Status: Arrived
Operator: Privately registered:
United States
More flights under this callsign
Pilot: Andrew M. (139)
Aircraft: SOCATA TBM-900
(TBM9)
More flights by this aircraft type
Origin: KIFP Laughlin/Bullhead Intl
United States
Destination: KVGT North Las Vegas
United States
More flights between these airports :: More routes between these airports
Route: +EED GFS V538 LAS
File this flight plan on PilotEdge
Remarks:
Altitude:
(Current/Filed)
12,000ft
Speed:
(Current/Filed)
300kts
Departed: 25-Jan-19 08:35 PM
Arrived: 25-Jan-19 09:24 PM
Distance/Time
Traveled:
70nm/0:48
Distance/Time
To Go:
Arrived

Flight Plot

Page will automatically refresh every two minutes.


Map Options




Map Legend


Flown Route
Filed Route
Departure Airport
Arrival Airport
Navaid (VOR, NDB)
Fix

Horizontal Profiles

Position Reports

Time Latitude Longitude Heading Altitude Ground
Speed
25-Jan-19 20:20 35.158611 -114.556007 266 704ft 0kts
25-Jan-19 20:21 35.158611 -114.556007 266 704ft 0kts
25-Jan-19 20:22 35.158607 -114.556096 266 704ft 3kts
25-Jan-19 20:23 35.155954 -114.556964 261 704ft 11kts
25-Jan-19 20:24 35.151636 -114.557752 173 704ft 25kts
25-Jan-19 20:25 35.150396 -114.557652 164 704ft 0kts
25-Jan-19 20:26 35.146647 -114.557364 177 704ft 14kts
25-Jan-19 20:27 35.143229 -114.557342 238 704ft 7kts
25-Jan-19 20:28 35.143188 -114.557443 247 704ft 0kts
25-Jan-19 20:29 35.143188 -114.557443 247 704ft 0kts
25-Jan-19 20:30 35.143188 -114.557443 247 704ft 0kts
25-Jan-19 20:31 35.143188 -114.557443 247 704ft 0kts
25-Jan-19 20:32 35.143188 -114.557443 247 704ft 0kts
25-Jan-19 20:33 35.143276 -114.558459 340 704ft 3kts
25-Jan-19 20:34 35.164634 -114.564833 309 1938ft 125kts
25-Jan-19 20:35 35.144370 -114.587085 138 4446ft 142kts
25-Jan-19 20:36 35.123842 -114.550677 174 6030ft 178kts
25-Jan-19 20:37 35.073366 -114.541286 168 6004ft 182kts
25-Jan-19 20:38 35.024739 -114.530619 168 7063ft 178kts
25-Jan-19 20:39 34.976604 -114.520085 167 9681ft 180kts
25-Jan-19 20:40 34.925638 -114.508913 168 11933ft 196kts
25-Jan-19 20:41 34.864959 -114.495682 169 12006ft 230kts
25-Jan-19 20:42 34.801452 -114.481812 169 11990ft 236kts
25-Jan-19 20:43 34.767191 -114.515054 317 12004ft 175kts
25-Jan-19 20:44 34.805578 -114.550947 311 12001ft 184kts
25-Jan-19 20:45 34.833944 -114.603726 309 12003ft 185kts
25-Jan-19 20:46 34.861814 -114.657036 309 11999ft 186kts
25-Jan-19 20:47 34.889824 -114.710720 309 11999ft 186kts
25-Jan-19 20:48 34.917736 -114.764281 309 12004ft 186kts
25-Jan-19 20:49 34.945693 -114.817988 309 12006ft 186kts
25-Jan-19 20:50 34.973611 -114.871720 309 11990ft 186kts
25-Jan-19 20:51 35.001097 -114.924718 309 11996ft 183kts
25-Jan-19 20:52 35.023575 -114.968073 310 11998ft 185kts
25-Jan-19 20:53 35.051303 -115.021691 310 11990ft 184kts
25-Jan-19 20:54 35.078765 -115.074820 309 11993ft 185kts
25-Jan-19 20:55 35.106168 -115.127928 309 12009ft 189kts
25-Jan-19 20:56 35.141247 -115.174911 358 12011ft 191kts
25-Jan-19 20:57 35.194739 -115.175186 359 12014ft 196kts
25-Jan-19 20:58 35.249462 -115.174383 0 12009ft 196kts
25-Jan-19 20:59 35.304465 -115.173411 359 11912ft 199kts
25-Jan-19 21:00 35.358923 -115.172485 359 12012ft 195kts
25-Jan-19 21:01 35.413358 -115.171528 0 12008ft 195kts
25-Jan-19 21:02 35.467385 -115.170587 0 12005ft 192kts
25-Jan-19 21:03 35.520144 -115.169668 0 12011ft 188kts
25-Jan-19 21:04 35.572646 -115.168756 0 12010ft 187kts
25-Jan-19 21:05 35.624907 -115.167845 359 12006ft 187kts
25-Jan-19 21:06 35.676478 -115.166928 0 12004ft 187kts
25-Jan-19 21:07 35.728759 -115.166014 0 11421ft 190kts
25-Jan-19 21:08 35.781603 -115.165090 0 9958ft 184kts
25-Jan-19 21:09 35.827602 -115.164264 0 9930ft 151kts
25-Jan-19 21:10 35.867878 -115.163562 0 9929ft 141kts
25-Jan-19 21:11 35.906181 -115.162885 0 9942ft 135kts
25-Jan-19 21:12 35.942749 -115.150298 21 9306ft 146kts
25-Jan-19 21:14 35.978426 -115.130015 21 7754ft 135kts
25-Jan-19 21:15 36.012565 -115.110512 21 7041ft 157kts
25-Jan-19 21:16 36.047229 -115.091135 21 6984ft 102kts
25-Jan-19 21:17 36.073587 -115.075752 21 7032ft 116kts
25-Jan-19 21:18 36.099607 -115.075521 337 5814ft 95kts
25-Jan-19 21:19 36.123743 -115.094101 330 5148ft 117kts
25-Jan-19 21:20 36.147743 -115.119044 315 4321ft 101kts
25-Jan-19 21:21 36.168107 -115.143856 316 3175ft 116kts
25-Jan-19 21:22 36.187087 -115.167942 318 2688ft 83kts
25-Jan-19 21:23 36.203838 -115.189031 317 2248ft 84kts
25-Jan-19 21:24 36.210525 -115.198177 252 2195ft 0kts
25-Jan-19 21:25 36.209807 -115.198769 132 2196ft 0kts
25-Jan-19 21:26 36.209807 -115.198769 132 2196ft 0kts
25-Jan-19 21:27 36.209807 -115.198769 132 2196ft 0kts

Navigation Log

Ident Type
Flight plan parsing failed, navigation log unavailable